sensor_id;sensor_type;location;lat;lon;timestamp;P1;durP1;ratioP1;P2;durP2;ratioP2
58414;SDS011;44210;42.706;18.344;2022-10-16T00:00:29;10.25;;;7.45;;
58414;SDS011;44210;42.706;18.344;2022-10-16T00:02:55;12.13;;;7.95;;
58414;SDS011;44210;42.706;18.344;2022-10-16T00:05:22;8.60;;;7.80;;
58414;SDS011;44210;42.706;18.344;2022-10-16T00:07:48;9.93;;;8.52;;
58414;SDS011;44210;42.706;18.344;2022-10-16T00:10:14;9.63;;;7.82;;
58414;SDS011;44210;42.706;18.344;2022-10-16T00:12:40;7.20;;;6.50;;
58414;SDS011;44210;42.706;18.344;2022-10-16T00:15:06;9.07;;;7.32;;
58414;SDS011;44210;42.706;18.344;2022-10-16T00:17:32;8.18;;;7.03;;
58414;SDS011;44210;42.706;18.344;2022-10-16T00:19:58;7.85;;;7.05;;
58414;SDS011;44210;42.706;18.344;2022-10-16T00:22:24;10.05;;;7.45;;
58414;SDS011;44210;42.706;18.344;2022-10-16T00:24:50;7.97;;;7.28;;
58414;SDS011;44210;42.706;18.344;2022-10-16T00:27:16;8.45;;;6.60;;
58414;SDS011;44210;42.706;18.344;2022-10-16T00:29:42;7.68;;;6.88;;
58414;SDS011;44210;42.706;18.344;2022-10-16T00:32:08;10.18;;;7.88;;
58414;SDS011;44210;42.706;18.344;2022-10-16T00:34:34;8.10;;;7.15;;
58414;SDS011;44210;42.706;18.344;2022-10-16T00:37:00;8.52;;;6.97;;
58414;SDS011;44210;42.706;18.344;2022-10-16T00:39:26;7.93;;;6.70;;
58414;SDS011;44210;42.706;18.344;2022-10-16T00:41:52;9.20;;;7.03;;
58414;SDS011;44210;42.706;18.344;2022-10-16T00:47:03;11.80;;;8.35;;
58414;SDS011;44210;42.706;18.344;2022-10-16T00:49:29;8.18;;;7.43;;
58414;SDS011;44210;42.706;18.344;2022-10-16T00:51:55;9.20;;;6.35;;
58414;SDS011;44210;42.706;18.344;2022-10-16T00:54:30;7.28;;;6.57;;
58414;SDS011;44210;42.706;18.344;2022-10-16T00:56:58;8.05;;;7.25;;
58414;SDS011;44210;42.706;18.344;2022-10-16T00:59:26;8.18;;;6.72;;
58414;SDS011;44210;42.706;18.344;2022-10-16T01:01:53;7.93;;;7.13;;
58414;SDS011;44210;42.706;18.344;2022-10-16T01:04:20;6.85;;;6.15;;
58414;SDS011;44210;42.706;18.344;2022-10-16T01:06:50;9.20;;;6.93;;
58414;SDS011;44210;42.706;18.344;2022-10-16T01:12:02;8.45;;;6.40;;
58414;SDS011;44210;42.706;18.344;2022-10-16T01:15:32;9.13;;;6.97;;
58414;SDS011;44210;42.706;18.344;2022-10-16T01:22:37;8.48;;;6.72;;
58414;SDS011;44210;42.706;18.344;2022-10-16T01:25:05;9.57;;;7.13;;
58414;SDS011;44210;42.706;18.344;2022-10-16T01:27:34;10.68;;;7.78;;
58414;SDS011;44210;42.706;18.344;2022-10-16T01:34:57;8.65;;;7.35;;
58414;SDS011;44210;42.706;18.344;2022-10-16T01:37:29;7.90;;;7.10;;
58414;SDS011;44210;42.706;18.344;2022-10-16T01:39:58;7.72;;;6.93;;
58414;SDS011;44210;42.706;18.344;2022-10-16T01:42:26;11.55;;;7.60;;
58414;SDS011;44210;42.706;18.344;2022-10-16T01:44:54;9.68;;;7.53;;
58414;SDS011;44210;42.706;18.344;2022-10-16T01:47:22;9.45;;;7.45;;
58414;SDS011;44210;42.706;18.344;2022-10-16T01:49:49;7.97;;;7.13;;
58414;SDS011;44210;42.706;18.344;2022-10-16T01:52:17;8.45;;;7.53;;
58414;SDS011;44210;42.706;18.344;2022-10-16T01:54:45;10.75;;;7.95;;
58414;SDS011;44210;42.706;18.344;2022-10-16T01:57:13;7.68;;;6.55;;
58414;SDS011;44210;42.706;18.344;2022-10-16T01:59:42;7.93;;;7.10;;
58414;SDS011;44210;42.706;18.344;2022-10-16T02:02:09;11.25;;;6.75;;
58414;SDS011;44210;42.706;18.344;2022-10-16T02:07:02;8.00;;;6.70;;
58414;SDS011;44210;42.706;18.344;2022-10-16T02:09:29;9.50;;;6.65;;
58414;SDS011;44210;42.706;18.344;2022-10-16T02:11:55;9.73;;;6.22;;
58414;SDS011;44210;42.706;18.344;2022-10-16T02:14:22;9.60;;;7.10;;
58414;SDS011;44210;42.706;18.344;2022-10-16T02:16:49;7.47;;;6.60;;
58414;SDS011;44210;42.706;18.344;2022-10-16T02:19:16;8.45;;;6.65;;
58414;SDS011;44210;42.706;18.344;2022-10-16T02:21:51;9.70;;;7.38;;
58414;SDS011;44210;42.706;18.344;2022-10-16T02:29:27;10.38;;;6.80;;
58414;SDS011;44210;42.706;18.344;2022-10-16T02:32:00;11.25;;;7.25;;
58414;SDS011;44210;42.706;18.344;2022-10-16T02:34:27;11.05;;;6.93;;
58414;SDS011;44210;42.706;18.344;2022-10-16T02:36:54;8.18;;;7.07;;
58414;SDS011;44210;42.706;18.344;2022-10-16T02:39:21;9.23;;;6.65;;
58414;SDS011;44210;42.706;18.344;2022-10-16T02:41:47;8.45;;;6.95;;
58414;SDS011;44210;42.706;18.344;2022-10-16T02:44:13;8.40;;;6.53;;
58414;SDS011;44210;42.706;18.344;2022-10-16T02:46:39;9.18;;;7.43;;
58414;SDS011;44210;42.706;18.344;2022-10-16T02:49:05;8.13;;;7.03;;
58414;SDS011;44210;42.706;18.344;2022-10-16T02:51:31;9.50;;;7.05;;
58414;SDS011;44210;42.706;18.344;2022-10-16T02:53:57;7.53;;;6.53;;
58414;SDS011;44210;42.706;18.344;2022-10-16T02:56:23;8.95;;;6.40;;
58414;SDS011;44210;42.706;18.344;2022-10-16T02:58:50;10.55;;;6.70;;
58414;SDS011;44210;42.706;18.344;2022-10-16T03:01:16;9.38;;;7.00;;
58414;SDS011;44210;42.706;18.344;2022-10-16T03:03:42;7.93;;;6.70;;
58414;SDS011;44210;42.706;18.344;2022-10-16T03:06:11;7.55;;;5.93;;
58414;SDS011;44210;42.706;18.344;2022-10-16T03:08:37;11.85;;;6.82;;
58414;SDS011;44210;42.706;18.344;2022-10-16T03:11:03;7.45;;;6.57;;
58414;SDS011;44210;42.706;18.344;2022-10-16T03:13:29;7.10;;;6.35;;
58414;SDS011;44210;42.706;18.344;2022-10-16T03:15:55;8.07;;;6.15;;
58414;SDS011;44210;42.706;18.344;2022-10-16T03:18:21;8.90;;;6.18;;
58414;SDS011;44210;42.706;18.344;2022-10-16T03:20:47;8.90;;;6.35;;
58414;SDS011;44210;42.706;18.344;2022-10-16T03:23:13;7.45;;;6.72;;
58414;SDS011;44210;42.706;18.344;2022-10-16T03:25:39;16.50;;;7.70;;
58414;SDS011;44210;42.706;18.344;2022-10-16T03:28:05;10.00;;;6.50;;
58414;SDS011;44210;42.706;18.344;2022-10-16T03:30:31;8.32;;;6.88;;
58414;SDS011;44210;42.706;18.344;2022-10-16T03:32:57;9.85;;;7.05;;
58414;SDS011;44210;42.706;18.344;2022-10-16T03:35:23;8.75;;;7.07;;
58414;SDS011;44210;42.706;18.344;2022-10-16T03:37:50;8.40;;;7.50;;
58414;SDS011;44210;42.706;18.344;2022-10-16T03:40:16;8.60;;;7.45;;
58414;SDS011;44210;42.706;18.344;2022-10-16T03:42:42;10.52;;;7.05;;
58414;SDS011;44210;42.706;18.344;2022-10-16T03:45:09;12.57;;;7.30;;
58414;SDS011;44210;42.706;18.344;2022-10-16T03:47:35;8.95;;;7.00;;
58414;SDS011;44210;42.706;18.344;2022-10-16T03:50:01;7.82;;;7.00;;
58414;SDS011;44210;42.706;18.344;2022-10-16T03:52:28;12.30;;;7.45;;
58414;SDS011;44210;42.706;18.344;2022-10-16T03:54:54;7.65;;;6.50;;
58414;SDS011;44210;42.706;18.344;2022-10-16T03:57:20;12.63;;;6.93;;
58414;SDS011;44210;42.706;18.344;2022-10-16T03:59:46;7.53;;;6.57;;
58414;SDS011;44210;42.706;18.344;2022-10-16T04:02:12;8.88;;;6.65;;
58414;SDS011;44210;42.706;18.344;2022-10-16T04:04:38;6.75;;;5.95;;
58414;SDS011;44210;42.706;18.344;2022-10-16T04:07:04;7.00;;;5.88;;
58414;SDS011;44210;42.706;18.344;2022-10-16T04:09:30;6.85;;;6.15;;
58414;SDS011;44210;42.706;18.344;2022-10-16T04:11:56;9.27;;;6.20;;
58414;SDS011;44210;42.706;18.344;2022-10-16T04:14:22;6.95;;;6.00;;
58414;SDS011;44210;42.706;18.344;2022-10-16T04:16:48;8.70;;;5.88;;
58414;SDS011;44210;42.706;18.344;2022-10-16T04:19:14;8.15;;;6.35;;
58414;SDS011;44210;42.706;18.344;2022-10-16T04:21:40;6.53;;;5.93;;
58414;SDS011;44210;42.706;18.344;2022-10-16T04:24:06;7.90;;;6.35;;
58414;SDS011;44210;42.706;18.344;2022-10-16T04:26:32;6.68;;;5.97;;
58414;SDS011;44210;42.706;18.344;2022-10-16T04:29:19;8.50;;;6.07;;
58414;SDS011;44210;42.706;18.344;2022-10-16T04:31:44;6.88;;;5.78;;
58414;SDS011;44210;42.706;18.344;2022-10-16T04:34:10;7.25;;;6.15;;
58414;SDS011;44210;42.706;18.344;2022-10-16T04:36:36;7.13;;;6.38;;
58414;SDS011;44210;42.706;18.344;2022-10-16T04:39:02;7.72;;;6.55;;
58414;SDS011;44210;42.706;18.344;2022-10-16T04:41:28;6.82;;;6.13;;
58414;SDS011;44210;42.706;18.344;2022-10-16T04:43:54;7.28;;;6.22;;
58414;SDS011;44210;42.706;18.344;2022-10-16T04:46:20;9.13;;;6.28;;
58414;SDS011;44210;42.706;18.344;2022-10-16T04:48:46;12.20;;;6.85;;
58414;SDS011;44210;42.706;18.344;2022-10-16T04:51:12;8.15;;;6.20;;
58414;SDS011;44210;42.706;18.344;2022-10-16T04:53:38;7.18;;;6.20;;
58414;SDS011;44210;42.706;18.344;2022-10-16T04:56:05;7.63;;;6.30;;
58414;SDS011;44210;42.706;18.344;2022-10-16T04:58:31;9.50;;;7.07;;
58414;SDS011;44210;42.706;18.344;2022-10-16T05:00:57;12.80;;;6.95;;
58414;SDS011;44210;42.706;18.344;2022-10-16T05:03:23;9.60;;;6.63;;
58414;SDS011;44210;42.706;18.344;2022-10-16T05:05:49;7.93;;;6.07;;
58414;SDS011;44210;42.706;18.344;2022-10-16T05:08:15;7.68;;;6.05;;
58414;SDS011;44210;42.706;18.344;2022-10-16T05:10:42;7.95;;;6.78;;
58414;SDS011;44210;42.706;18.344;2022-10-16T05:13:08;7.85;;;6.20;;
58414;SDS011;44210;42.706;18.344;2022-10-16T05:15:34;13.52;;;6.13;;
58414;SDS011;44210;42.706;18.344;2022-10-16T05:18:00;9.18;;;6.07;;
58414;SDS011;44210;42.706;18.344;2022-10-16T05:20:26;7.07;;;6.38;;
58414;SDS011;44210;42.706;18.344;2022-10-16T05:22:52;9.63;;;6.88;;
58414;SDS011;44210;42.706;18.344;2022-10-16T05:25:19;8.48;;;6.07;;
58414;SDS011;44210;42.706;18.344;2022-10-16T05:27:48;8.05;;;6.47;;
58414;SDS011;44210;42.706;18.344;2022-10-16T05:30:15;8.05;;;6.05;;
58414;SDS011;44210;42.706;18.344;2022-10-16T05:32:41;12.40;;;6.60;;
58414;SDS011;44210;42.706;18.344;2022-10-16T05:35:07;8.60;;;5.97;;
58414;SDS011;44210;42.706;18.344;2022-10-16T05:37:33;9.07;;;6.47;;
58414;SDS011;44210;42.706;18.344;2022-10-16T05:39:59;9.70;;;7.20;;
58414;SDS011;44210;42.706;18.344;2022-10-16T05:42:26;7.72;;;6.93;;
58414;SDS011;44210;42.706;18.344;2022-10-16T05:44:52;8.93;;;6.70;;
58414;SDS011;44210;42.706;18.344;2022-10-16T05:47:18;9.15;;;6.60;;
58414;SDS011;44210;42.706;18.344;2022-10-16T05:49:45;11.93;;;6.10;;
58414;SDS011;44210;42.706;18.344;2022-10-16T05:52:12;7.97;;;6.57;;
58414;SDS011;44210;42.706;18.344;2022-10-16T05:54:38;8.95;;;6.05;;
58414;SDS011;44210;42.706;18.344;2022-10-16T05:57:04;9.30;;;6.05;;
58414;SDS011;44210;42.706;18.344;2022-10-16T05:59:31;7.28;;;6.57;;
58414;SDS011;44210;42.706;18.344;2022-10-16T06:01:57;8.65;;;6.60;;
58414;SDS011;44210;42.706;18.344;2022-10-16T06:04:23;9.38;;;6.68;;
58414;SDS011;44210;42.706;18.344;2022-10-16T06:06:49;7.97;;;6.00;;
58414;SDS011;44210;42.706;18.344;2022-10-16T06:09:15;9.13;;;6.13;;
58414;SDS011;44210;42.706;18.344;2022-10-16T06:11:41;6.32;;;5.63;;
58414;SDS011;44210;42.706;18.344;2022-10-16T06:14:08;8.48;;;5.60;;
58414;SDS011;44210;42.706;18.344;2022-10-16T06:16:35;7.60;;;6.38;;
58414;SDS011;44210;42.706;18.344;2022-10-16T06:19:02;11.15;;;6.03;;
58414;SDS011;44210;42.706;18.344;2022-10-16T06:21:31;9.30;;;6.50;;
58414;SDS011;44210;42.706;18.344;2022-10-16T06:23:57;11.35;;;6.45;;
58414;SDS011;44210;42.706;18.344;2022-10-16T06:26:24;13.60;;;6.35;;
58414;SDS011;44210;42.706;18.344;2022-10-16T06:28:50;9.38;;;6.50;;
58414;SDS011;44210;42.706;18.344;2022-10-16T06:31:16;6.80;;;5.88;;
58414;SDS011;44210;42.706;18.344;2022-10-16T06:33:43;8.05;;;5.95;;
58414;SDS011;44210;42.706;18.344;2022-10-16T06:36:11;8.07;;;6.57;;
58414;SDS011;44210;42.706;18.344;2022-10-16T06:38:38;7.00;;;6.30;;
58414;SDS011;44210;42.706;18.344;2022-10-16T06:41:04;6.85;;;5.85;;
58414;SDS011;44210;42.706;18.344;2022-10-16T06:43:31;7.60;;;6.28;;
58414;SDS011;44210;42.706;18.344;2022-10-16T06:45:57;8.20;;;5.88;;
58414;SDS011;44210;42.706;18.344;2022-10-16T06:48:24;6.63;;;5.90;;
58414;SDS011;44210;42.706;18.344;2022-10-16T06:51:00;9.63;;;6.63;;
58414;SDS011;44210;42.706;18.344;2022-10-16T06:53:28;7.07;;;5.78;;
58414;SDS011;44210;42.706;18.344;2022-10-16T06:55:54;8.80;;;6.40;;
58414;SDS011;44210;42.706;18.344;2022-10-16T06:58:20;7.25;;;6.32;;
58414;SDS011;44210;42.706;18.344;2022-10-16T07:00:46;7.00;;;5.53;;
58414;SDS011;44210;42.706;18.344;2022-10-16T07:03:12;7.65;;;6.25;;
58414;SDS011;44210;42.706;18.344;2022-10-16T07:05:39;6.80;;;5.28;;
58414;SDS011;44210;42.706;18.344;2022-10-16T07:08:05;6.05;;;5.45;;
58414;SDS011;44210;42.706;18.344;2022-10-16T07:10:31;6.97;;;6.05;;
58414;SDS011;44210;42.706;18.344;2022-10-16T07:12:58;9.20;;;5.78;;
58414;SDS011;44210;42.706;18.344;2022-10-16T07:15:24;7.35;;;6.00;;
58414;SDS011;44210;42.706;18.344;2022-10-16T07:17:51;15.00;;;6.05;;
58414;SDS011;44210;42.706;18.344;2022-10-16T07:20:17;7.80;;;5.38;;
58414;SDS011;44210;42.706;18.344;2022-10-16T07:22:43;7.13;;;5.30;;
58414;SDS011;44210;42.706;18.344;2022-10-16T07:25:09;8.02;;;6.07;;
58414;SDS011;44210;42.706;18.344;2022-10-16T07:27:36;6.85;;;5.68;;
58414;SDS011;44210;42.706;18.344;2022-10-16T07:30:02;9.05;;;5.80;;
58414;SDS011;44210;42.706;18.344;2022-10-16T07:32:28;7.20;;;5.50;;
58414;SDS011;44210;42.706;18.344;2022-10-16T07:34:54;7.47;;;5.32;;
58414;SDS011;44210;42.706;18.344;2022-10-16T07:37:21;8.88;;;5.35;;
58414;SDS011;44210;42.706;18.344;2022-10-16T07:39:47;7.50;;;5.90;;
58414;SDS011;44210;42.706;18.344;2022-10-16T07:42:13;10.30;;;5.78;;
58414;SDS011;44210;42.706;18.344;2022-10-16T07:44:39;9.13;;;5.88;;
58414;SDS011;44210;42.706;18.344;2022-10-16T07:47:06;7.63;;;5.65;;
58414;SDS011;44210;42.706;18.344;2022-10-16T07:49:32;6.78;;;5.95;;
58414;SDS011;44210;42.706;18.344;2022-10-16T07:51:58;7.60;;;6.05;;
58414;SDS011;44210;42.706;18.344;2022-10-16T07:54:24;8.43;;;5.95;;
58414;SDS011;44210;42.706;18.344;2022-10-16T07:56:50;10.20;;;6.55;;
58414;SDS011;44210;42.706;18.344;2022-10-16T07:59:16;9.02;;;5.18;;
58414;SDS011;44210;42.706;18.344;2022-10-16T08:01:42;6.15;;;5.40;;
58414;SDS011;44210;42.706;18.344;2022-10-16T08:04:09;8.05;;;5.93;;
58414;SDS011;44210;42.706;18.344;2022-10-16T08:06:38;11.32;;;5.70;;
58414;SDS011;44210;42.706;18.344;2022-10-16T08:09:05;8.63;;;5.75;;
58414;SDS011;44210;42.706;18.344;2022-10-16T08:11:31;10.80;;;5.63;;
58414;SDS011;44210;42.706;18.344;2022-10-16T08:13:57;8.07;;;5.00;;
58414;SDS011;44210;42.706;18.344;2022-10-16T08:16:23;9.65;;;5.60;;
58414;SDS011;44210;42.706;18.344;2022-10-16T08:18:49;7.25;;;6.07;;
58414;SDS011;44210;42.706;18.344;2022-10-16T08:21:17;9.02;;;5.85;;
58414;SDS011;44210;42.706;18.344;2022-10-16T08:23:44;9.00;;;5.70;;
58414;SDS011;44210;42.706;18.344;2022-10-16T08:26:10;9.60;;;5.45;;
58414;SDS011;44210;42.706;18.344;2022-10-16T08:28:36;10.55;;;6.75;;
58414;SDS011;44210;42.706;18.344;2022-10-16T08:31:20;8.80;;;5.95;;
58414;SDS011;44210;42.706;18.344;2022-10-16T08:33:46;6.75;;;6.00;;
58414;SDS011;44210;42.706;18.344;2022-10-16T08:36:13;6.25;;;5.38;;
58414;SDS011;44210;42.706;18.344;2022-10-16T08:38:39;14.23;;;5.80;;
58414;SDS011;44210;42.706;18.344;2022-10-16T08:44:01;8.60;;;5.22;;
58414;SDS011;44210;42.706;18.344;2022-10-16T08:46:41;7.07;;;5.35;;
58414;SDS011;44210;42.706;18.344;2022-10-16T08:49:10;11.98;;;5.40;;
58414;SDS011;44210;42.706;18.344;2022-10-16T08:51:38;8.70;;;5.93;;
58414;SDS011;44210;42.706;18.344;2022-10-16T08:54:06;5.95;;;5.35;;
58414;SDS011;44210;42.706;18.344;2022-10-16T08:56:33;5.97;;;4.97;;
58414;SDS011;44210;42.706;18.344;2022-10-16T08:59:00;7.50;;;5.50;;
58414;SDS011;44210;42.706;18.344;2022-10-16T09:01:37;10.98;;;5.88;;
58414;SDS011;44210;42.706;18.344;2022-10-16T09:04:49;8.10;;;5.10;;
58414;SDS011;44210;42.706;18.344;2022-10-16T09:09:29;14.87;;;5.60;;
58414;SDS011;44210;42.706;18.344;2022-10-16T09:16:57;8.20;;;5.30;;
58414;SDS011;44210;42.706;18.344;2022-10-16T09:19:30;10.95;;;5.72;;
58414;SDS011;44210;42.706;18.344;2022-10-16T09:21:57;7.88;;;5.93;;
58414;SDS011;44210;42.706;18.344;2022-10-16T09:24:25;9.65;;;5.28;;
58414;SDS011;44210;42.706;18.344;2022-10-16T09:26:51;8.30;;;5.05;;
58414;SDS011;44210;42.706;18.344;2022-10-16T09:29:18;10.02;;;6.13;;
58414;SDS011;44210;42.706;18.344;2022-10-16T09:31:45;8.63;;;5.28;;
58414;SDS011;44210;42.706;18.344;2022-10-16T09:34:30;9.82;;;5.63;;
58414;SDS011;44210;42.706;18.344;2022-10-16T09:36:57;10.90;;;6.07;;
58414;SDS011;44210;42.706;18.344;2022-10-16T09:39:23;6.45;;;5.47;;
58414;SDS011;44210;42.706;18.344;2022-10-16T09:41:49;8.50;;;5.97;;
58414;SDS011;44210;42.706;18.344;2022-10-16T09:47:00;9.50;;;7.32;;
58414;SDS011;44210;42.706;18.344;2022-10-16T09:49:27;11.75;;;6.32;;
58414;SDS011;44210;42.706;18.344;2022-10-16T09:52:05;7.57;;;5.63;;
58414;SDS011;44210;42.706;18.344;2022-10-16T09:54:32;9.65;;;6.80;;
58414;SDS011;44210;42.706;18.344;2022-10-16T09:57:05;7.45;;;6.15;;
58414;SDS011;44210;42.706;18.344;2022-10-16T09:59:31;8.40;;;6.47;;
58414;SDS011;44210;42.706;18.344;2022-10-16T10:02:00;11.45;;;6.53;;
58414;SDS011;44210;42.706;18.344;2022-10-16T10:04:36;9.18;;;6.25;;
58414;SDS011;44210;42.706;18.344;2022-10-16T10:07:03;8.02;;;6.25;;
58414;SDS011;44210;42.706;18.344;2022-10-16T10:09:32;10.65;;;6.10;;
58414;SDS011;44210;42.706;18.344;2022-10-16T10:12:01;8.25;;;6.25;;
58414;SDS011;44210;42.706;18.344;2022-10-16T10:19:36;7.35;;;5.53;;
58414;SDS011;44210;42.706;18.344;2022-10-16T10:22:13;6.60;;;6.00;;
58414;SDS011;44210;42.706;18.344;2022-10-16T10:24:39;10.50;;;6.30;;
58414;SDS011;44210;42.706;18.344;2022-10-16T10:27:15;8.30;;;5.97;;
58414;SDS011;44210;42.706;18.344;2022-10-16T10:29:52;7.15;;;5.20;;
58414;SDS011;44210;42.706;18.344;2022-10-16T10:47:42;11.70;;;6.55;;
58414;SDS011;44210;42.706;18.344;2022-10-16T10:55:36;9.98;;;5.70;;
58414;SDS011;44210;42.706;18.344;2022-10-16T11:03:25;9.18;;;6.13;;
58414;SDS011;44210;42.706;18.344;2022-10-16T11:05:56;7.30;;;5.90;;
58414;SDS011;44210;42.706;18.344;2022-10-16T11:08:26;9.35;;;5.72;;
58414;SDS011;44210;42.706;18.344;2022-10-16T11:10:54;8.48;;;6.05;;
58414;SDS011;44210;42.706;18.344;2022-10-16T11:13:26;7.43;;;5.85;;
58414;SDS011;44210;42.706;18.344;2022-10-16T11:15:57;6.63;;;5.43;;
58414;SDS011;44210;42.706;18.344;2022-10-16T11:18:25;7.93;;;5.93;;
58414;SDS011;44210;42.706;18.344;2022-10-16T11:20:53;8.25;;;6.47;;
58414;SDS011;44210;42.706;18.344;2022-10-16T11:25:56;7.68;;;5.07;;
58414;SDS011;44210;42.706;18.344;2022-10-16T11:28:24;6.80;;;5.57;;
58414;SDS011;44210;42.706;18.344;2022-10-16T11:33:34;10.55;;;6.22;;
58414;SDS011;44210;42.706;18.344;2022-10-16T11:36:09;10.98;;;6.75;;
58414;SDS011;44210;42.706;18.344;2022-10-16T11:38:46;7.25;;;6.47;;
58414;SDS011;44210;42.706;18.344;2022-10-16T11:43:45;6.90;;;6.15;;
58414;SDS011;44210;42.706;18.344;2022-10-16T11:46:20;8.10;;;6.40;;
58414;SDS011;44210;42.706;18.344;2022-10-16T11:51:33;8.75;;;7.10;;
58414;SDS011;44210;42.706;18.344;2022-10-16T11:56:32;9.97;;;7.10;;
58414;SDS011;44210;42.706;18.344;2022-10-16T11:59:04;7.32;;;6.55;;
58414;SDS011;44210;42.706;18.344;2022-10-16T12:01:33;8.88;;;7.22;;
58414;SDS011;44210;42.706;18.344;2022-10-16T12:04:25;7.00;;;6.13;;
58414;SDS011;44210;42.706;18.344;2022-10-16T12:09:29;10.82;;;7.65;;
58414;SDS011;44210;42.706;18.344;2022-10-16T12:11:55;7.55;;;6.85;;
58414;SDS011;44210;42.706;18.344;2022-10-16T12:14:37;10.80;;;7.30;;
58414;SDS011;44210;42.706;18.344;2022-10-16T12:19:56;7.70;;;6.63;;
58414;SDS011;44210;42.706;18.344;2022-10-16T12:22:22;7.63;;;6.60;;
58414;SDS011;44210;42.706;18.344;2022-10-16T12:24:53;7.40;;;6.70;;
58414;SDS011;44210;42.706;18.344;2022-10-16T12:27:31;8.32;;;6.82;;
58414;SDS011;44210;42.706;18.344;2022-10-16T12:30:14;11.50;;;6.07;;
58414;SDS011;44210;42.706;18.344;2022-10-16T12:32:46;8.05;;;6.18;;
58414;SDS011;44210;42.706;18.344;2022-10-16T12:35:19;6.93;;;6.20;;
58414;SDS011;44210;42.706;18.344;2022-10-16T12:37:46;8.68;;;5.55;;
58414;SDS011;44210;42.706;18.344;2022-10-16T12:40:13;8.90;;;6.03;;
58414;SDS011;44210;42.706;18.344;2022-10-16T12:42:40;8.80;;;6.68;;
58414;SDS011;44210;42.706;18.344;2022-10-16T12:47:51;6.03;;;5.40;;
58414;SDS011;44210;42.706;18.344;2022-10-16T12:50:26;10.10;;;5.82;;
58414;SDS011;44210;42.706;18.344;2022-10-16T12:52:53;8.93;;;6.45;;
58414;SDS011;44210;42.706;18.344;2022-10-16T12:55:20;7.07;;;6.38;;
58414;SDS011;44210;42.706;18.344;2022-10-16T12:57:53;6.75;;;6.15;;
58414;SDS011;44210;42.706;18.344;2022-10-16T13:00:26;7.75;;;6.35;;
58414;SDS011;44210;42.706;18.344;2022-10-16T13:10:51;9.40;;;6.80;;
58414;SDS011;44210;42.706;18.344;2022-10-16T13:16:05;10.65;;;6.95;;
58414;SDS011;44210;42.706;18.344;2022-10-16T13:21:24;7.75;;;6.75;;
58414;SDS011;44210;42.706;18.344;2022-10-16T13:24:01;8.00;;;6.63;;
58414;SDS011;44210;42.706;18.344;2022-10-16T13:26:35;11.93;;;7.22;;
58414;SDS011;44210;42.706;18.344;2022-10-16T13:29:04;6.78;;;6.10;;
58414;SDS011;44210;42.706;18.344;2022-10-16T13:31:30;6.78;;;6.18;;
58414;SDS011;44210;42.706;18.344;2022-10-16T13:33:58;11.02;;;6.97;;
58414;SDS011;44210;42.706;18.344;2022-10-16T13:36:26;8.00;;;6.53;;
58414;SDS011;44210;42.706;18.344;2022-10-16T13:39:27;8.10;;;6.72;;
58414;SDS011;44210;42.706;18.344;2022-10-16T13:41:46;9.15;;;7.18;;
58414;SDS011;44210;42.706;18.344;2022-10-16T13:44:17;9.57;;;7.97;;
58414;SDS011;44210;42.706;18.344;2022-10-16T13:46:45;9.52;;;7.18;;
58414;SDS011;44210;42.706;18.344;2022-10-16T13:49:12;7.78;;;7.00;;
58414;SDS011;44210;42.706;18.344;2022-10-16T13:51:38;7.85;;;7.05;;
58414;SDS011;44210;42.706;18.344;2022-10-16T13:54:04;9.00;;;7.68;;
58414;SDS011;44210;42.706;18.344;2022-10-16T13:56:31;9.65;;;6.78;;
58414;SDS011;44210;42.706;18.344;2022-10-16T13:59:01;7.85;;;7.15;;
58414;SDS011;44210;42.706;18.344;2022-10-16T14:01:28;9.88;;;7.60;;
58414;SDS011;44210;42.706;18.344;2022-10-16T14:03:59;8.13;;;7.32;;
58414;SDS011;44210;42.706;18.344;2022-10-16T14:06:26;8.33;;;7.53;;
58414;SDS011;44210;42.706;18.344;2022-10-16T14:09:05;8.85;;;7.60;;
58414;SDS011;44210;42.706;18.344;2022-10-16T14:11:32;8.30;;;7.50;;
58414;SDS011;44210;42.706;18.344;2022-10-16T14:13:59;8.27;;;7.43;;
58414;SDS011;44210;42.706;18.344;2022-10-16T14:16:26;9.23;;;8.18;;
58414;SDS011;44210;42.706;18.344;2022-10-16T14:18:55;8.52;;;7.70;;
58414;SDS011;44210;42.706;18.344;2022-10-16T14:21:21;13.32;;;8.65;;
58414;SDS011;44210;42.706;18.344;2022-10-16T14:23:48;8.68;;;7.00;;
58414;SDS011;44210;42.706;18.344;2022-10-16T14:26:14;8.80;;;8.00;;
58414;SDS011;44210;42.706;18.344;2022-10-16T14:28:41;9.30;;;8.50;;
58414;SDS011;44210;42.706;18.344;2022-10-16T14:33:52;9.52;;;8.63;;
58414;SDS011;44210;42.706;18.344;2022-10-16T14:36:18;9.20;;;8.30;;
58414;SDS011;44210;42.706;18.344;2022-10-16T14:41:20;9.88;;;8.98;;
58414;SDS011;44210;42.706;18.344;2022-10-16T14:43:49;10.52;;;9.35;;
58414;SDS011;44210;42.706;18.344;2022-10-16T14:46:17;9.45;;;8.57;;
58414;SDS011;44210;42.706;18.344;2022-10-16T14:48:45;10.45;;;9.18;;
58414;SDS011;44210;42.706;18.344;2022-10-16T14:51:15;12.10;;;9.02;;
58414;SDS011;44210;42.706;18.344;2022-10-16T14:53:42;10.18;;;9.18;;
58414;SDS011;44210;42.706;18.344;2022-10-16T14:56:08;11.82;;;10.57;;
58414;SDS011;44210;42.706;18.344;2022-10-16T14:58:38;11.13;;;10.07;;
58414;SDS011;44210;42.706;18.344;2022-10-16T15:01:04;11.65;;;10.48;;
58414;SDS011;44210;42.706;18.344;2022-10-16T15:03:33;14.70;;;10.10;;
58414;SDS011;44210;42.706;18.344;2022-10-16T15:05:59;11.43;;;10.27;;
58414;SDS011;44210;42.706;18.344;2022-10-16T15:08:25;11.95;;;10.82;;
58414;SDS011;44210;42.706;18.344;2022-10-16T15:10:51;14.55;;;11.25;;
58414;SDS011;44210;42.706;18.344;2022-10-16T15:13:17;11.75;;;10.73;;
58414;SDS011;44210;42.706;18.344;2022-10-16T15:15:44;11.13;;;9.95;;
58414;SDS011;44210;42.706;18.344;2022-10-16T15:18:10;12.23;;;10.80;;
58414;SDS011;44210;42.706;18.344;2022-10-16T15:20:37;11.43;;;10.32;;
58414;SDS011;44210;42.706;18.344;2022-10-16T15:23:10;12.55;;;11.35;;
58414;SDS011;44210;42.706;18.344;2022-10-16T15:28:14;13.30;;;11.88;;
58414;SDS011;44210;42.706;18.344;2022-10-16T15:30:41;13.65;;;12.25;;
58414;SDS011;44210;42.706;18.344;2022-10-16T15:33:14;13.07;;;11.77;;
58414;SDS011;44210;42.706;18.344;2022-10-16T15:35:41;13.75;;;12.38;;
58414;SDS011;44210;42.706;18.344;2022-10-16T15:38:11;14.73;;;13.30;;
58414;SDS011;44210;42.706;18.344;2022-10-16T15:40:37;13.20;;;11.80;;
58414;SDS011;44210;42.706;18.344;2022-10-16T15:43:03;14.98;;;12.75;;
58414;SDS011;44210;42.706;18.344;2022-10-16T15:45:29;13.60;;;12.30;;
58414;SDS011;44210;42.706;18.344;2022-10-16T15:47:55;15.57;;;13.23;;
58414;SDS011;44210;42.706;18.344;2022-10-16T15:50:21;15.65;;;14.00;;
58414;SDS011;44210;42.706;18.344;2022-10-16T15:52:47;14.05;;;12.60;;
58414;SDS011;44210;42.706;18.344;2022-10-16T15:55:13;13.65;;;12.35;;
58414;SDS011;44210;42.706;18.344;2022-10-16T15:57:40;18.27;;;13.13;;
58414;SDS011;44210;42.706;18.344;2022-10-16T16:00:09;14.18;;;12.73;;
58414;SDS011;44210;42.706;18.344;2022-10-16T16:02:35;15.18;;;13.35;;
58414;SDS011;44210;42.706;18.344;2022-10-16T16:05:01;13.57;;;12.20;;
58414;SDS011;44210;42.706;18.344;2022-10-16T16:07:27;14.57;;;13.05;;
58414;SDS011;44210;42.706;18.344;2022-10-16T16:09:53;15.00;;;13.45;;
58414;SDS011;44210;42.706;18.344;2022-10-16T16:12:19;15.85;;;13.90;;
58414;SDS011;44210;42.706;18.344;2022-10-16T16:14:45;15.85;;;13.63;;
58414;SDS011;44210;42.706;18.344;2022-10-16T16:17:13;16.52;;;13.85;;
58414;SDS011;44210;42.706;18.344;2022-10-16T16:19:39;14.88;;;13.45;;
58414;SDS011;44210;42.706;18.344;2022-10-16T16:22:05;14.48;;;13.02;;
58414;SDS011;44210;42.706;18.344;2022-10-16T16:24:31;16.25;;;14.20;;